createdAt,value
2022-10-21T00:00:50.875Z,97631.25
2022-10-21T00:03:18.820Z,97624.38
2022-10-21T00:05:46.467Z,97609.00
2022-10-21T00:08:16.316Z,97613.75
2022-10-21T00:10:43.063Z,97610.59
2022-10-21T00:13:10.223Z,97609.78
2022-10-21T00:15:37.302Z,97596.03
2022-10-21T00:18:04.414Z,97591.09
2022-10-21T00:20:32.738Z,97595.63
2022-10-21T00:23:01.661Z,97593.03
2022-10-21T00:25:28.366Z,97593.03
2022-10-21T00:27:55.067Z,97594.91
2022-10-21T00:30:21.831Z,97593.97
2022-10-21T00:32:48.550Z,97599.06
2022-10-21T00:35:15.404Z,97606.75
2022-10-21T00:37:42.115Z,97604.28
2022-10-21T00:40:10.485Z,97594.91
2022-10-21T00:42:43.765Z,97576.78
2022-10-21T00:45:23.284Z,97577.88
2022-10-21T00:48:01.881Z,97577.31
2022-10-21T00:50:42.632Z,97565.63
2022-10-21T00:53:15.653Z,97563.16
2022-10-21T00:55:51.698Z,97564.38
2022-10-21T00:58:24.469Z,97574.94
2022-10-21T01:00:55.956Z,97580.28
2022-10-21T01:03:26.306Z,97572.59
2022-10-21T01:05:56.247Z,97575.91
2022-10-21T01:08:25.319Z,97576.59
2022-10-21T01:11:01.008Z,97574.94
2022-10-21T01:14:14.915Z,97558.88
2022-10-21T01:17:53.958Z,97554.84
2022-10-21T01:20:54.685Z,97557.19
2022-10-21T01:23:56.561Z,97542.88
2022-10-21T01:27:12.457Z,97525.03
2022-10-21T01:30:05.961Z,97522.00
2022-10-21T01:33:03.705Z,97520.03
2022-10-21T01:35:57.841Z,97523.97
2022-10-21T01:38:43.227Z,97529.56
2022-10-21T01:41:16.531Z,97527.22
2022-10-21T01:44:02.158Z,97529.97
2022-10-21T01:46:56.048Z,97532.69
2022-10-21T01:49:48.507Z,97524.19
2022-10-21T01:52:17.191Z,97517.56
2022-10-21T01:54:51.098Z,97508.09
2022-10-21T01:57:23.661Z,97521.22
2022-10-21T01:59:52.052Z,97501.34
2022-10-21T02:02:22.098Z,97507.38
2022-10-21T02:04:51.936Z,97509.28
2022-10-21T02:07:18.753Z,97517.94
2022-10-21T02:09:45.453Z,97525.88
2022-10-21T02:12:12.533Z,97544.22
2022-10-21T02:14:47.212Z,97545.28
2022-10-21T02:17:19.713Z,97541.75
2022-10-21T02:19:46.608Z,97531.06
2022-10-21T02:22:20.466Z,97529.16
2022-10-21T02:24:55.664Z,97532.38
2022-10-21T02:27:23.398Z,97544.88
2022-10-21T02:29:55.477Z,97535.84
2022-10-21T02:32:42.870Z,97542.44
2022-10-21T02:35:43.320Z,97528.47
2022-10-21T02:38:37.452Z,97525.75
2022-10-21T02:41:11.465Z,97521.25
2022-10-21T02:43:57.990Z,97528.13
2022-10-21T02:46:26.329Z,97520.59
2022-10-21T02:48:53.680Z,97506.59
2022-10-21T02:51:20.421Z,97500.31
2022-10-21T02:53:47.142Z,97489.88
2022-10-21T02:56:13.882Z,97488.25
2022-10-21T02:58:40.598Z,97489.06
2022-10-21T03:01:07.415Z,97495.09
2022-10-21T03:03:34.170Z,97484.69
2022-10-21T03:06:00.917Z,97489.88
2022-10-21T03:08:27.806Z,97484.56
2022-10-21T03:10:55.709Z,97474.84
2022-10-21T03:13:23.333Z,97474.72
2022-10-21T03:15:50.817Z,97456.47
2022-10-21T03:18:17.619Z,97455.66
2022-10-21T03:20:45.041Z,97452.09
2022-10-21T03:23:11.747Z,97449.22
2022-10-21T03:25:38.496Z,97453.47
2022-10-21T03:28:05.521Z,97448.38
2022-10-21T03:30:32.321Z,97452.63
2022-10-21T03:32:59.066Z,97446.47
2022-10-21T03:35:26.153Z,97453.47
2022-10-21T03:37:52.977Z,97437.69
2022-10-21T03:40:19.717Z,97430.69
2022-10-21T03:42:46.504Z,97441.94
2022-10-21T03:45:13.232Z,97446.34
2022-10-21T03:47:39.998Z,97440.06
2022-10-21T03:50:10.282Z,97432.25
2022-10-21T03:52:40.913Z,97437.47
2022-10-21T03:55:08.214Z,97431.97
2022-10-21T03:57:34.991Z,97431.00
2022-10-21T04:00:02.291Z,97413.59
2022-10-21T04:02:29.049Z,97414.28
2022-10-21T04:04:55.760Z,97415.09
2022-10-21T04:07:22.494Z,97414.00
2022-10-21T04:09:49.172Z,97401.81
2022-10-21T04:12:15.912Z,97395.38
2022-10-21T04:14:42.664Z,97393.31
2022-10-21T04:17:09.365Z,97393.88
2022-10-21T04:19:36.143Z,97391.00
2022-10-21T04:22:02.894Z,97381.97
2022-10-21T04:24:29.603Z,97372.22
2022-10-21T04:26:56.325Z,97368.38
2022-10-21T04:29:23.058Z,97364.56
2022-10-21T04:31:49.798Z,97358.94
2022-10-21T04:34:16.652Z,97357.97
2022-10-21T04:36:43.368Z,97364.00
2022-10-21T04:39:10.191Z,97348.50
2022-10-21T04:41:37.283Z,97348.63
2022-10-21T04:44:06.218Z,97335.75
2022-10-21T04:46:33.550Z,97320.25
2022-10-21T04:49:00.242Z,97316.91
2022-10-21T04:51:27.127Z,97322.00
2022-10-21T04:53:53.931Z,97311.47
2022-10-21T04:56:20.641Z,97307.88
2022-10-21T04:58:47.382Z,97311.84
2022-10-21T05:01:14.213Z,97310.59
2022-10-21T05:03:40.993Z,97323.41
2022-10-21T05:06:07.677Z,97316.94
2022-10-21T05:08:34.424Z,97317.75
2022-10-21T05:11:02.875Z,97312.25
2022-10-21T05:13:30.678Z,97323.50
2022-10-21T05:16:03.060Z,97326.13
2022-10-21T05:18:30.734Z,97318.28
2022-10-21T05:20:58.848Z,97325.44
2022-10-21T05:23:26.942Z,97311.56
2022-10-21T05:25:54.195Z,97316.94
2022-10-21T05:28:22.162Z,97309.41
2022-10-21T05:30:49.212Z,97311.44
2022-10-21T05:33:16.191Z,97303.75
2022-10-21T05:35:43.011Z,97308.28
2022-10-21T05:38:09.842Z,97313.63
2022-10-21T05:40:36.553Z,97308.44
2022-10-21T05:43:03.338Z,97307.59
2022-10-21T05:45:30.181Z,97293.88
2022-10-21T05:47:56.937Z,97293.06
2022-10-21T05:50:23.878Z,97297.47
2022-10-21T05:52:50.580Z,97302.66
2022-10-21T05:55:17.333Z,97312.00
2022-10-21T05:57:47.091Z,97306.78
2022-10-21T06:00:14.115Z,97323.25
2022-10-21T06:02:41.157Z,97334.63
2022-10-21T06:05:08.300Z,97334.63
2022-10-21T06:07:35.059Z,97336.28
2022-10-21T06:10:02.563Z,97342.47
2022-10-21T06:12:29.272Z,97338.34
2022-10-21T06:14:56.077Z,97343.81
2022-10-21T06:17:23.012Z,97346.31
2022-10-21T06:19:51.011Z,97356.59
2022-10-21T06:22:18.131Z,97368.38
2022-10-21T06:24:45.938Z,97356.72
2022-10-21T06:27:13.703Z,97373.88
2022-10-21T06:29:40.438Z,97367.81
2022-10-21T06:32:07.178Z,97366.03
2022-10-21T06:34:34.658Z,97381.59
2022-10-21T06:37:01.359Z,97376.75
2022-10-21T06:39:28.047Z,97379.91
2022-10-21T06:41:54.787Z,97376.91
2022-10-21T06:44:21.537Z,97383.63
2022-10-21T06:46:48.311Z,97391.03
2022-10-21T06:49:15.070Z,97374.13
2022-10-21T06:51:41.779Z,97372.91
2022-10-21T06:54:08.529Z,97365.63
2022-10-21T06:56:35.296Z,97367.13
2022-10-21T06:59:02.026Z,97366.16
2022-10-21T07:01:41.798Z,97378.13
2022-10-21T07:04:19.800Z,97382.25
2022-10-21T07:06:46.564Z,97381.16
2022-10-21T07:09:13.389Z,97381.72
2022-10-21T07:11:40.121Z,97385.69
2022-10-21T07:14:07.413Z,97383.63
2022-10-21T07:16:37.231Z,97385.81
2022-10-21T07:19:05.753Z,97391.56
2022-10-21T07:21:32.849Z,97394.88
2022-10-21T07:24:00.851Z,97386.91
2022-10-21T07:26:33.618Z,97381.94
2022-10-21T07:29:01.210Z,97392.81
2022-10-21T07:31:32.169Z,97394.16
2022-10-21T07:36:40.923Z,97387.13
2022-10-21T07:39:12.710Z,97387.50
2022-10-21T07:41:47.608Z,97385.16
2022-10-21T07:44:15.895Z,97383.91
2022-10-21T07:46:44.787Z,97389.66
2022-10-21T07:49:12.832Z,97377.94
2022-10-21T07:51:40.616Z,97379.47
2022-10-21T07:54:08.508Z,97375.31
2022-10-21T07:56:41.032Z,97367.56
2022-10-21T07:59:12.606Z,97359.69
2022-10-21T08:01:44.359Z,97360.75
2022-10-21T08:04:15.304Z,97361.81
2022-10-21T08:06:42.846Z,97358.25
2022-10-21T08:09:09.858Z,97362.50
2022-10-21T08:11:37.203Z,97378.84
2022-10-21T08:14:09.749Z,97373.06
2022-10-21T08:16:37.022Z,97383.09
2022-10-21T08:19:05.209Z,97384.28
2022-10-21T08:21:32.196Z,97383.25
2022-10-21T08:24:01.398Z,97386.50
2022-10-21T08:26:28.210Z,97397.03
2022-10-21T08:28:55.037Z,97398.91
2022-10-21T08:31:23.072Z,97409.88
2022-10-21T08:33:50.567Z,97405.63
2022-10-21T08:36:21.740Z,97406.59
2022-10-21T08:38:48.974Z,97408.25
2022-10-21T08:41:29.314Z,97406.00
2022-10-21T08:44:14.378Z,97391.97
2022-10-21T08:46:51.993Z,97395.25
2022-10-21T08:49:45.020Z,97390.69
2022-10-21T08:52:31.004Z,97390.69
2022-10-21T08:55:04.281Z,97389.03
2022-10-21T08:57:34.940Z,97383.97
2022-10-21T09:00:12.169Z,97381.50
2022-10-21T09:02:58.245Z,97378.22
2022-10-21T09:05:49.330Z,97357.56
2022-10-21T09:08:25.270Z,97356.72
2022-10-21T09:11:31.562Z,97360.16
2022-10-21T09:14:25.918Z,97364.97
2022-10-21T09:17:07.800Z,97362.19
2022-10-21T09:20:01.847Z,97369.59
2022-10-21T09:22:59.357Z,97359.78
2022-10-21T09:25:34.978Z,97359.50
2022-10-21T09:28:18.658Z,97351.34
2022-10-21T09:30:45.548Z,97352.69
2022-10-21T09:33:31.164Z,97349.63
2022-10-21T09:36:05.620Z,97358.00
2022-10-21T09:39:14.713Z,97351.63
2022-10-21T09:41:46.698Z,97359.16
2022-10-21T09:44:20.818Z,97372.94
2022-10-21T09:46:50.981Z,97381.75
2022-10-21T09:52:23.062Z,97401.44
2022-10-21T09:54:50.175Z,97404.72
2022-10-21T09:57:44.827Z,97411.59
2022-10-21T10:00:13.895Z,97417.50
2022-10-21T10:02:45.090Z,97428.81
2022-10-21T10:05:44.520Z,97442.72
2022-10-21T10:08:44.792Z,97447.44
2022-10-21T10:11:18.033Z,97433.13
2022-10-21T10:13:51.915Z,97429.41
2022-10-21T10:16:33.110Z,97441.22
2022-10-21T10:19:20.978Z,97439.34
2022-10-21T10:22:16.745Z,97434.66
2022-10-21T10:24:44.831Z,97408.53
2022-10-21T10:27:23.222Z,97399.59
2022-10-21T10:29:56.368Z,97375.16
2022-10-21T10:32:31.666Z,97354.22
2022-10-21T10:35:07.990Z,97348.66
2022-10-21T10:37:38.169Z,97349.00
2022-10-21T10:40:09.532Z,97328.41
2022-10-21T10:42:43.965Z,97337.44
2022-10-21T10:45:22.042Z,97339.91
2022-10-21T10:47:56.611Z,97331.88
2022-10-21T10:50:48.575Z,97308.19
2022-10-21T10:53:36.339Z,97294.44
2022-10-21T10:56:28.680Z,97295.59
2022-10-21T10:59:21.259Z,97284.66
2022-10-21T11:02:14.927Z,97287.28
2022-10-21T11:07:39.328Z,97271.22
2022-10-21T11:10:38.902Z,97283.34
2022-10-21T11:13:15.800Z,97287.59
2022-10-21T11:16:11.360Z,97274.00
2022-10-21T11:18:49.631Z,97296.28
2022-10-21T11:21:45.149Z,97298.53
2022-10-21T11:24:35.601Z,97303.28
2022-10-21T11:27:38.104Z,97344.84
2022-10-21T11:30:22.613Z,97416.53
2022-10-21T11:33:13.050Z,97443.38
2022-10-21T11:35:59.495Z,97427.44
2022-10-21T11:39:25.983Z,97414.47
2022-10-21T11:42:13.962Z,97402.59
2022-10-21T11:44:57.283Z,97402.84
2022-10-21T11:48:03.590Z,97404.72
2022-10-21T11:50:45.348Z,97407.91
2022-10-21T11:53:54.965Z,97405.19
2022-10-21T11:56:39.744Z,97416.22
2022-10-21T11:59:30.477Z,97402.13
2022-10-21T12:02:25.704Z,97405.13
2022-10-21T12:05:15.106Z,97410.94
2022-10-21T12:08:27.708Z,97404.72
2022-10-21T12:11:19.198Z,97406.84
2022-10-21T12:13:53.745Z,97407.63
2022-10-21T12:16:28.030Z,97415.28
2022-10-21T12:19:01.067Z,97421.53
2022-10-21T12:21:33.943Z,97415.94
2022-10-21T12:24:33.821Z,97426.44
2022-10-21T12:27:26.385Z,97426.44
2022-10-21T12:30:30.607Z,97418.00
2022-10-21T12:33:20.233Z,97414.59
2022-10-21T12:35:56.041Z,97417.78
2022-10-21T12:38:55.238Z,97406.81
2022-10-21T12:41:24.848Z,97418.19
2022-10-21T12:44:00.751Z,97418.53
2022-10-21T12:46:41.469Z,97422.28
2022-10-21T12:49:21.549Z,97426.03
2022-10-21T12:52:06.335Z,97422.94
2022-10-21T12:54:51.835Z,97424.59
2022-10-21T12:57:31.321Z,97415.53
2022-10-21T13:00:34.919Z,97415.19
2022-10-21T13:03:18.698Z,97412.81
2022-10-21T13:05:45.351Z,97396.47
2022-10-21T13:08:19.193Z,97386.16
2022-10-21T13:11:04.020Z,97383.31
2022-10-21T13:13:40.715Z,97395.09
2022-10-21T13:16:19.575Z,97392.41
2022-10-21T13:19:05.071Z,97385.66
2022-10-21T13:21:47.042Z,97386.56
2022-10-21T13:24:24.184Z,97390.16
2022-10-21T13:27:04.509Z,97386.38
2022-10-21T13:29:45.006Z,97389.03
2022-10-21T13:32:14.546Z,97380.13
2022-10-21T13:34:56.388Z,97383.16
2022-10-21T13:37:35.934Z,97368.69
2022-10-21T13:40:13.128Z,97363.41
2022-10-21T13:42:46.666Z,97366.31
2022-10-21T13:45:37.263Z,97364.00
2022-10-21T13:48:20.719Z,97368.09
2022-10-21T13:50:50.304Z,97364.56
2022-10-21T13:53:26.819Z,97366.41
2022-10-21T13:56:03.464Z,97366.63
2022-10-21T13:58:38.894Z,97370.03
2022-10-21T14:01:13.845Z,97376.81
2022-10-21T14:03:42.133Z,97369.69
2022-10-21T14:06:15.672Z,97362.34
2022-10-21T14:08:46.944Z,97366.56
2022-10-21T14:11:22.730Z,97352.94
2022-10-21T14:13:51.331Z,97351.84
2022-10-21T14:16:34.685Z,97352.13
2022-10-21T14:19:22.508Z,97344.16
2022-10-21T14:21:53.834Z,97341.09
2022-10-21T14:24:43.079Z,97341.91
2022-10-21T14:27:26.377Z,97345.19
2022-10-21T14:29:54.141Z,97349.13
2022-10-21T14:32:23.809Z,97339.13
2022-10-21T14:35:09.317Z,97339.16
2022-10-21T14:38:00.711Z,97321.56
2022-10-21T14:40:33.998Z,97324.38
2022-10-21T14:43:18.579Z,97349.56
2022-10-21T14:45:50.496Z,97346.72
2022-10-21T14:48:46.626Z,97355.84
2022-10-21T14:51:21.237Z,97368.25
2022-10-21T14:53:59.719Z,97355.75
2022-10-21T14:56:38.570Z,97365.22
2022-10-21T14:59:28.565Z,97361.69
2022-10-21T15:02:02.063Z,97367.50
2022-10-21T15:04:59.207Z,97362.44
2022-10-21T15:07:38.715Z,97357.53
2022-10-21T15:10:05.448Z,97348.47
2022-10-21T15:12:53.403Z,97346.81
2022-10-21T15:16:18.147Z,97340.56
2022-10-21T15:18:48.816Z,97353.91
2022-10-21T15:21:47.871Z,97367.94
2022-10-21T15:24:29.705Z,97362.34
2022-10-21T15:26:59.816Z,97362.88
2022-10-21T15:29:38.257Z,97370.47
2022-10-21T15:32:06.467Z,97359.94
2022-10-21T15:34:33.292Z,97360.81
2022-10-21T15:37:00.177Z,97367.72
2022-10-21T15:39:27.010Z,97363.28
2022-10-21T15:41:56.121Z,97366.94
2022-10-21T15:44:34.481Z,97358.41
2022-10-21T15:47:05.400Z,97361.97
2022-10-21T15:49:42.679Z,97350.00
2022-10-21T15:52:09.725Z,97352.81
2022-10-21T15:54:36.522Z,97365.28
2022-10-21T15:57:18.444Z,97371.50
2022-10-21T15:59:46.216Z,97363.13
2022-10-21T16:02:17.161Z,97366.59
2022-10-21T16:04:45.186Z,97354.44
2022-10-21T16:07:26.383Z,97355.38
2022-10-21T16:09:53.138Z,97361.47
2022-10-21T16:12:21.771Z,97362.25
2022-10-21T16:14:48.555Z,97358.72
2022-10-21T16:17:15.488Z,97355.28
2022-10-21T16:19:42.607Z,97351.47
2022-10-21T16:22:22.798Z,97347.72
2022-10-21T16:24:49.759Z,97353.72
2022-10-21T16:27:30.983Z,97350.78
2022-10-21T16:30:28.626Z,97333.03
2022-10-21T16:32:57.082Z,97326.81
2022-10-21T16:35:24.013Z,97337.91
2022-10-21T16:37:51.146Z,97330.53
2022-10-21T16:40:25.008Z,97345.75
2022-10-21T16:42:52.905Z,97366.22
2022-10-21T16:45:22.867Z,97365.19
2022-10-21T16:47:56.553Z,97368.78
2022-10-21T16:50:40.630Z,97377.94
2022-10-21T16:53:16.159Z,97387.88
2022-10-21T16:55:43.409Z,97397.84
2022-10-21T16:58:10.270Z,97407.00
2022-10-21T17:00:37.011Z,97398.50
2022-10-21T17:03:04.276Z,97408.44
2022-10-21T17:05:31.099Z,97402.53
2022-10-21T17:07:59.770Z,97401.03
2022-10-21T17:10:26.627Z,97390.22
2022-10-21T17:12:58.581Z,97393.13
2022-10-21T17:15:26.561Z,97382.91
2022-10-21T17:17:53.820Z,97397.31
2022-10-21T17:20:20.588Z,97386.16
2022-10-21T17:22:47.316Z,97389.06
2022-10-21T17:25:14.083Z,97389.38
2022-10-21T17:27:41.111Z,97390.50
2022-10-21T17:30:09.112Z,97398.81
2022-10-21T17:32:35.876Z,97410.41
2022-10-21T17:35:02.610Z,97403.81
2022-10-21T17:37:29.328Z,97394.50
2022-10-21T17:39:56.056Z,97405.13
2022-10-21T17:42:22.804Z,97394.41
2022-10-21T17:44:49.736Z,97398.81
2022-10-21T17:47:16.426Z,97401.75
2022-10-21T17:49:43.172Z,97399.28
2022-10-21T17:52:09.895Z,97402.22
2022-10-21T17:54:36.723Z,97403.31
2022-10-21T17:57:04.807Z,97409.50
2022-10-21T17:59:32.666Z,97413.09
2022-10-21T18:02:00.459Z,97416.03
2022-10-21T18:04:27.513Z,97418.13
2022-10-21T18:06:54.367Z,97415.66
2022-10-21T18:09:21.204Z,97414.03
2022-10-21T18:11:48.223Z,97403.00
2022-10-21T18:14:14.943Z,97406.59
2022-10-21T18:16:41.846Z,97406.75
2022-10-21T18:19:08.543Z,97410.50
2022-10-21T18:21:35.394Z,97413.41
2022-10-21T18:24:02.150Z,97403.09
2022-10-21T18:26:31.299Z,97407.50
2022-10-21T18:29:04.320Z,97397.31
2022-10-21T18:31:34.712Z,97390.44
2022-10-21T18:34:03.866Z,97382.91
2022-10-21T18:36:31.207Z,97377.50
2022-10-21T18:38:59.676Z,97387.16
2022-10-21T18:41:27.472Z,97392.38
2022-10-21T18:44:01.942Z,97384.69
2022-10-21T18:46:30.042Z,97389.25
2022-10-21T18:48:57.973Z,97387.63
2022-10-21T18:51:25.088Z,97381.84
2022-10-21T18:53:53.183Z,97389.00
2022-10-21T18:56:23.439Z,97377.88
2022-10-21T18:58:51.554Z,97366.91
2022-10-21T19:01:20.531Z,97358.38
2022-10-21T19:03:50.586Z,97363.75
2022-10-21T19:06:42.891Z,97364.75
2022-10-21T19:09:20.270Z,97369.97
2022-10-21T19:11:47.566Z,97357.00
2022-10-21T19:14:15.877Z,97362.41
2022-10-21T19:16:43.969Z,97377.41
2022-10-21T19:19:11.450Z,97386.22
2022-10-21T19:21:38.530Z,97381.81
2022-10-21T19:24:05.645Z,97381.00
2022-10-21T19:26:34.389Z,97382.78
2022-10-21T19:29:13.211Z,97387.34
2022-10-21T19:31:41.343Z,97394.53
2022-10-21T19:34:09.706Z,97405.13
2022-10-21T19:36:36.449Z,97398.25
2022-10-21T19:39:03.760Z,97404.53
2022-10-21T19:41:30.733Z,97398.78
2022-10-21T19:44:00.334Z,97389.31
2022-10-21T19:46:30.966Z,97392.88
2022-10-21T19:48:59.811Z,97395.66
2022-10-21T19:51:26.805Z,97390.56
2022-10-21T19:53:54.810Z,97391.66
2022-10-21T19:56:26.954Z,97404.88
2022-10-21T19:58:55.601Z,97409.44
2022-10-21T20:01:26.445Z,97415.63
2022-10-21T20:03:54.688Z,97414.97
2022-10-21T20:06:29.077Z,97402.03
2022-10-21T20:09:00.329Z,97409.88
2022-10-21T20:11:28.348Z,97410.03
2022-10-21T20:13:56.101Z,97410.19
2022-10-21T20:16:30.249Z,97413.59
2022-10-21T20:18:57.982Z,97425.03
2022-10-21T20:21:25.073Z,97425.97
2022-10-21T20:23:52.350Z,97431.19
2022-10-21T20:26:19.868Z,97422.69
2022-10-21T20:28:46.690Z,97428.06
2022-10-21T20:31:15.557Z,97434.25
2022-10-21T20:33:47.272Z,97430.16
2022-10-21T20:36:24.839Z,97439.78
2022-10-21T20:38:54.242Z,97438.94
2022-10-21T20:41:25.845Z,97438.94
2022-10-21T20:43:54.710Z,97431.25
2022-10-21T20:46:24.154Z,97423.56
2022-10-21T20:48:53.492Z,97434.53
2022-10-21T20:51:23.954Z,97425.88
2022-10-21T20:53:57.095Z,97421.47
2022-10-21T20:56:29.233Z,97417.91
2022-10-21T20:58:56.977Z,97424.91
2022-10-21T21:01:34.220Z,97419.69
2022-10-21T21:04:10.938Z,97422.44
2022-10-21T21:06:44.804Z,97419.84
2022-10-21T21:12:02.650Z,97421.47
2022-10-21T21:14:29.818Z,97412.81
2022-10-21T21:16:56.773Z,97409.53
2022-10-21T21:19:24.153Z,97407.06
2022-10-21T21:21:50.897Z,97400.19
2022-10-21T21:24:17.591Z,97400.31
2022-10-21T21:26:44.294Z,97409.94
2022-10-21T21:29:12.309Z,97406.66
2022-10-21T21:31:40.818Z,97403.50
2022-10-21T21:34:08.237Z,97397.91
2022-10-21T21:36:36.507Z,97406.00
2022-10-21T21:39:05.659Z,97391.44
2022-10-21T21:41:32.875Z,97402.19
2022-10-21T21:43:59.688Z,97392.19
2022-10-21T21:46:27.375Z,97395.06
2022-10-21T21:49:02.382Z,97382.13
2022-10-21T21:51:33.199Z,97380.50
2022-10-21T21:54:00.348Z,97388.47
2022-10-21T21:56:27.971Z,97381.63
2022-10-21T21:58:57.471Z,97381.75
2022-10-21T22:01:27.275Z,97383.69
2022-10-21T22:03:54.335Z,97380.53
2022-10-21T22:06:28.631Z,97380.81
2022-10-21T22:08:55.875Z,97384.38
2022-10-21T22:11:25.975Z,97389.91
2022-10-21T22:13:53.054Z,97383.19
2022-10-21T22:16:22.010Z,97385.91
2022-10-21T22:18:48.919Z,97387.84
2022-10-21T22:21:18.377Z,97398.72
2022-10-21T22:23:46.653Z,97401.59
2022-10-21T22:26:15.370Z,97401.91
2022-10-21T22:28:42.226Z,97410.13
2022-10-21T22:31:16.313Z,97414.66
2022-10-21T22:36:16.472Z,97418.53
2022-10-21T22:38:44.796Z,97428.00
2022-10-21T22:41:12.899Z,97421.13
2022-10-21T22:43:40.403Z,97425.69
2022-10-21T22:46:21.967Z,97419.50
2022-10-21T22:48:54.072Z,97422.09
2022-10-21T22:51:21.219Z,97418.53
2022-10-21T22:53:53.485Z,97425.38
2022-10-21T22:56:23.925Z,97428.69
2022-10-21T22:58:50.665Z,97428.53
2022-10-21T23:01:17.386Z,97424.13
2022-10-21T23:03:44.091Z,97424.00
2022-10-21T23:06:11.050Z,97430.03
2022-10-21T23:08:37.813Z,97432.50
2022-10-21T23:11:04.705Z,97425.50
2022-10-21T23:13:31.493Z,97427.16
2022-10-21T23:15:58.210Z,97429.75
2022-10-21T23:18:27.483Z,97424.53
2022-10-21T23:20:54.425Z,97426.06
2022-10-21T23:23:21.133Z,97431.97
2022-10-21T23:25:47.858Z,97426.59
2022-10-21T23:28:14.669Z,97431.69
2022-10-21T23:30:43.149Z,97428.09
2022-10-21T23:33:10.490Z,97425.22
2022-10-21T23:35:37.206Z,97426.84
2022-10-21T23:38:04.458Z,97428.38
2022-10-21T23:40:31.195Z,97423.84
2022-10-21T23:42:58.059Z,97421.75
2022-10-21T23:45:24.757Z,97419.69
2022-10-21T23:47:51.458Z,97421.06
2022-10-21T23:50:18.330Z,97412.94
2022-10-21T23:52:45.055Z,97409.91
2022-10-21T23:55:11.774Z,97412.09
2022-10-21T23:57:39.120Z,97409.88
